createdAt,value
2018-11-27T00:19:44.296Z,27.50
2018-11-27T00:24:01.387Z,25.60
2018-11-27T00:28:19.077Z,28.53
2018-11-27T00:32:30.897Z,26.20
2018-11-27T00:36:47.202Z,28.70
2018-11-27T00:41:02.257Z,28.93
2018-11-27T00:45:18.169Z,25.13
2018-11-27T00:49:35.339Z,25.63
2018-11-27T00:53:46.959Z,26.97
2018-11-27T00:58:00.232Z,29.47
2018-11-27T01:02:10.808Z,26.93
2018-11-27T01:06:21.008Z,25.95
2018-11-27T01:10:31.375Z,28.70
2018-11-27T01:14:46.784Z,28.33
2018-11-27T01:19:04.593Z,27.10
2018-11-27T01:23:16.561Z,29.40
2018-11-27T01:27:29.295Z,27.83
2018-11-27T01:31:41.837Z,29.90
2018-11-27T01:35:53.944Z,30.37
2018-11-27T01:40:06.182Z,27.60
2018-11-27T01:44:17.867Z,29.02
2018-11-27T01:48:28.557Z,31.15
2018-11-27T01:52:37.420Z,29.73
2018-11-27T01:56:49.136Z,29.33
2018-11-27T02:01:01.754Z,27.53
2018-11-27T02:05:12.847Z,27.17
2018-11-27T02:09:21.940Z,27.93
2018-11-27T02:13:34.543Z,28.27
2018-11-27T02:17:44.502Z,26.40
2018-11-27T02:21:59.803Z,26.83
2018-11-27T02:26:11.860Z,25.57
2018-11-27T02:30:20.788Z,24.20
2018-11-27T02:34:29.683Z,23.93
2018-11-27T02:38:43.119Z,25.90
2018-11-27T02:42:50.683Z,25.37
2018-11-27T02:47:01.878Z,24.70
2018-11-27T02:51:12.007Z,24.70
2018-11-27T02:55:23.980Z,24.73
2018-11-27T02:59:34.236Z,25.13
2018-11-27T03:03:46.131Z,22.93
2018-11-27T03:07:58.871Z,25.40
2018-11-27T03:12:10.511Z,25.13
2018-11-27T03:16:22.465Z,24.80
2018-11-27T03:20:34.963Z,25.43
2018-11-27T03:24:45.050Z,25.92
2018-11-27T03:28:54.385Z,23.40
2018-11-27T03:33:09.707Z,24.73
2018-11-27T03:37:23.176Z,26.17
2018-11-27T03:41:33.967Z,26.20
2018-11-27T03:45:40.778Z,26.90
2018-11-27T03:49:50.559Z,26.73
2018-11-27T03:54:06.356Z,25.97
2018-11-27T03:58:35.095Z,27.70
2018-11-27T04:02:49.422Z,25.50
2018-11-27T04:06:55.988Z,25.93
2018-11-27T04:11:06.065Z,26.57
2018-11-27T04:15:17.320Z,26.35
2018-11-27T04:19:25.949Z,27.95
2018-11-27T04:23:41.659Z,25.47
2018-11-27T04:27:54.835Z,26.10
2018-11-27T04:32:03.066Z,27.90
2018-11-27T04:36:12.448Z,27.67
2018-11-27T04:40:24.721Z,24.82
2018-11-27T04:44:38.578Z,25.43
2018-11-27T04:48:51.440Z,25.17
2018-11-27T04:53:00.618Z,24.40
2018-11-27T04:57:16.569Z,26.73
2018-11-27T05:01:24.847Z,24.70
2018-11-27T05:05:35.407Z,25.60
2018-11-27T05:09:53.015Z,25.07
2018-11-27T05:14:06.378Z,26.63
2018-11-27T05:18:17.703Z,24.43
2018-11-27T05:22:27.911Z,26.52
2018-11-27T05:26:39.063Z,24.70
2018-11-27T05:30:54.364Z,24.73
2018-11-27T05:35:07.094Z,25.77
2018-11-27T05:39:18.090Z,26.20
2018-11-27T05:43:28.967Z,25.37
2018-11-27T05:47:41.654Z,26.25
2018-11-27T05:51:56.017Z,25.70
2018-11-27T05:56:06.871Z,25.43
2018-11-27T06:00:22.047Z,26.03
2018-11-27T06:04:29.584Z,26.03
2018-11-27T06:08:38.178Z,24.73
2018-11-27T06:12:48.048Z,25.23
2018-11-27T06:17:02.602Z,24.83
2018-11-27T06:21:13.711Z,26.10
2018-11-27T06:25:32.079Z,24.85
2018-11-27T06:29:46.731Z,27.17
2018-11-27T06:33:59.335Z,27.07
2018-11-27T06:38:08.886Z,25.90
2018-11-27T06:42:21.446Z,25.25
2018-11-27T06:46:34.857Z,25.27
2018-11-27T06:50:48.468Z,24.13
2018-11-27T06:55:09.455Z,26.17
2018-11-27T06:59:20.979Z,25.73
2018-11-27T07:03:40.369Z,25.70
2018-11-27T07:07:49.302Z,25.37
2018-11-27T07:12:00.589Z,24.40
2018-11-27T07:16:16.404Z,26.20
2018-11-27T07:20:28.165Z,26.33
2018-11-27T07:24:36.776Z,25.97
2018-11-27T07:28:48.471Z,26.60
2018-11-27T07:32:56.169Z,25.43
2018-11-27T07:41:36.177Z,23.43
2018-11-27T07:45:55.147Z,25.73
2018-11-27T07:50:02.973Z,23.70
2018-11-27T07:54:16.013Z,24.20
2018-11-27T07:58:31.287Z,25.90
2018-11-27T08:02:42.372Z,22.63
2018-11-27T08:06:51.556Z,25.67
2018-11-27T08:10:59.311Z,25.17
2018-11-27T08:15:15.948Z,24.97
2018-11-27T08:19:25.299Z,25.30
2018-11-27T08:23:32.993Z,25.40
2018-11-27T08:27:47.523Z,24.10
2018-11-27T08:31:59.827Z,26.57
2018-11-27T08:36:07.498Z,24.65
2018-11-27T08:40:27.467Z,24.52
2018-11-27T08:44:39.149Z,25.10
2018-11-27T08:48:46.897Z,27.50
2018-11-27T08:53:06.924Z,24.10
2018-11-27T08:57:17.800Z,26.60
2018-11-27T09:01:32.168Z,24.70
2018-11-27T09:05:42.404Z,24.83
2018-11-27T09:09:54.191Z,23.90
2018-11-27T09:14:10.434Z,22.33
2018-11-27T09:18:24.460Z,24.85
2018-11-27T09:22:37.893Z,25.47
2018-11-27T09:26:48.742Z,25.37
2018-11-27T09:31:01.403Z,24.67
2018-11-27T09:35:14.200Z,22.70
2018-11-27T09:39:21.486Z,23.80
2018-11-27T09:43:31.592Z,25.10
2018-11-27T09:47:46.020Z,24.50
2018-11-27T09:52:00.646Z,24.77
2018-11-27T09:56:15.058Z,24.03
2018-11-27T10:00:31.786Z,24.17
2018-11-27T10:04:49.833Z,21.77
2018-11-27T10:09:03.369Z,22.97
2018-11-27T10:13:12.372Z,23.17
2018-11-27T10:17:30.599Z,24.67
2018-11-27T10:21:40.455Z,23.77
2018-11-27T10:25:52.334Z,23.57
2018-11-27T10:30:04.953Z,24.73
2018-11-27T10:34:16.674Z,25.57
2018-11-27T10:38:26.415Z,23.97
2018-11-27T10:42:36.862Z,23.50
2018-11-27T10:46:48.330Z,23.00
2018-11-27T10:51:01.763Z,22.43
2018-11-27T10:55:11.313Z,23.27
2018-11-27T10:59:22.127Z,23.40
2018-11-27T11:03:37.518Z,22.33
2018-11-27T11:07:50.108Z,21.83
2018-11-27T11:12:04.924Z,26.73
2018-11-27T11:16:16.787Z,21.83
2018-11-27T11:20:35.493Z,20.90
2018-11-27T11:24:54.385Z,22.13
2018-11-27T11:29:13.461Z,21.50
2018-11-27T11:33:35.442Z,24.37
2018-11-27T11:37:47.477Z,21.77
2018-11-27T11:41:56.205Z,24.47
2018-11-27T11:46:06.928Z,21.93
2018-11-27T11:50:27.916Z,20.95
2018-11-27T11:54:40.534Z,22.40
2018-11-27T11:59:01.234Z,22.10
2018-11-27T12:03:11.724Z,21.23
2018-11-27T12:07:24.560Z,20.08
2018-11-27T12:11:31.646Z,21.10
2018-11-27T12:15:44.413Z,21.33
2018-11-27T12:19:54.318Z,21.43
2018-11-27T12:24:02.743Z,21.30
2018-11-27T12:28:19.827Z,22.80
2018-11-27T12:32:35.421Z,21.53
2018-11-27T12:36:46.424Z,20.77
2018-11-27T12:40:56.360Z,20.27
2018-11-27T12:45:08.041Z,20.07
2018-11-27T12:49:21.512Z,19.93
2018-11-27T12:53:32.462Z,20.53
2018-11-27T12:57:45.026Z,21.23
2018-11-27T13:01:56.646Z,21.40
2018-11-27T13:06:07.182Z,21.53
2018-11-27T13:10:17.218Z,19.93
2018-11-27T13:14:26.779Z,21.20
2018-11-27T13:18:39.241Z,20.57
2018-11-27T13:22:47.242Z,20.70
2018-11-27T13:27:01.114Z,24.37
2018-11-27T13:31:16.238Z,21.52
2018-11-27T13:35:26.997Z,21.97
2018-11-27T13:39:40.596Z,21.10
2018-11-27T13:43:54.181Z,23.13
2018-11-27T13:48:08.517Z,22.70
2018-11-27T13:52:21.130Z,21.75
2018-11-27T13:56:30.863Z,23.43
2018-11-27T14:00:39.718Z,21.93
2018-11-27T14:04:52.344Z,23.00
2018-11-27T14:09:03.144Z,23.77
2018-11-27T14:13:11.028Z,21.73
2018-11-27T14:17:21.280Z,23.23
2018-11-27T14:21:31.210Z,23.70
2018-11-27T14:25:47.571Z,24.07
2018-11-27T14:30:00.177Z,23.83
2018-11-27T14:34:16.617Z,23.42
2018-11-27T14:38:31.510Z,22.00
2018-11-27T14:42:40.508Z,21.93
2018-11-27T14:46:50.257Z,20.70
2018-11-27T14:51:07.788Z,22.67
2018-11-27T14:55:19.717Z,23.52
2018-11-27T14:59:35.246Z,25.10
2018-11-27T15:03:45.327Z,24.43
2018-11-27T15:08:06.118Z,26.47
2018-11-27T15:12:21.319Z,37.73
2018-11-27T15:16:32.428Z,33.87
2018-11-27T15:20:46.672Z,33.90
2018-11-27T15:24:58.420Z,33.83
2018-11-27T15:29:10.347Z,34.90
2018-11-27T15:33:25.712Z,35.30
2018-11-27T15:37:35.693Z,35.07
2018-11-27T15:41:45.452Z,36.80
2018-11-27T15:45:55.632Z,36.83
2018-11-27T15:50:09.804Z,36.73
2018-11-27T15:54:22.109Z,35.60
2018-11-27T15:58:31.983Z,36.67
2018-11-27T16:02:44.593Z,37.77
2018-11-27T16:06:53.166Z,37.43
2018-11-27T16:11:09.841Z,39.10
2018-11-27T16:15:22.736Z,38.27
2018-11-27T16:19:33.428Z,35.73
2018-11-27T16:23:47.055Z,37.60
2018-11-27T16:27:53.462Z,39.87
2018-11-27T16:32:05.079Z,35.87
2018-11-27T16:36:17.768Z,38.20
2018-11-27T16:40:52.848Z,37.33
2018-11-27T16:45:01.055Z,36.33
2018-11-27T16:49:09.417Z,37.63
2018-11-27T16:53:19.242Z,36.47
2018-11-27T16:57:36.230Z,37.47
2018-11-27T17:01:47.081Z,36.47
2018-11-27T17:05:58.636Z,38.00
2018-11-27T17:10:12.114Z,38.53
2018-11-27T17:14:29.157Z,38.93
2018-11-27T17:18:44.776Z,37.43
2018-11-27T17:22:58.288Z,32.80
2018-11-27T17:27:12.613Z,29.33
2018-11-27T17:31:24.460Z,28.47
2018-11-27T17:35:34.950Z,28.30
2018-11-27T17:39:47.500Z,26.87
2018-11-27T17:43:56.629Z,24.33
2018-11-27T17:48:08.891Z,23.23
2018-11-27T17:53:21.039Z,22.52
2018-11-27T17:57:29.600Z,22.70
2018-11-27T18:01:36.873Z,21.63
2018-11-27T18:05:51.326Z,23.57
2018-11-27T18:09:59.464Z,20.90
2018-11-27T18:14:07.786Z,21.25
2018-11-27T18:18:19.856Z,22.87
2018-11-27T18:22:29.820Z,21.33
2018-11-27T18:26:40.076Z,20.53
2018-11-27T18:30:49.958Z,22.20
2018-11-27T18:35:00.887Z,21.83
2018-11-27T18:39:15.319Z,22.53
2018-11-27T18:43:28.691Z,22.25
2018-11-27T18:47:39.647Z,23.10
2018-11-27T18:51:55.825Z,22.33
2018-11-27T18:56:16.582Z,24.27
2018-11-27T19:00:40.015Z,23.57
2018-11-27T19:04:49.876Z,24.23
2018-11-27T19:09:03.270Z,22.93
2018-11-27T19:13:11.521Z,23.17
2018-11-27T19:17:22.645Z,24.47
2018-11-27T19:21:30.923Z,23.70
2018-11-27T19:25:43.463Z,23.97
2018-11-27T19:29:55.086Z,25.10
2018-11-27T19:34:06.704Z,23.23
2018-11-27T19:38:22.711Z,23.53
2018-11-27T19:42:30.174Z,25.43
2018-11-27T19:46:41.794Z,25.80
2018-11-27T19:50:55.533Z,25.27
2018-11-27T19:55:08.917Z,24.13
2018-11-27T19:59:17.766Z,23.93
2018-11-27T20:03:32.191Z,25.23
2018-11-27T20:07:46.920Z,24.57
2018-11-27T20:12:02.118Z,22.63
2018-11-27T20:16:13.134Z,23.20
2018-11-27T20:20:25.839Z,23.43
2018-11-27T20:24:41.190Z,24.33
2018-11-27T20:28:56.471Z,24.17
2018-11-27T20:33:10.407Z,23.63
2018-11-27T20:37:21.457Z,24.97
2018-11-27T20:41:34.160Z,23.10
2018-11-27T20:45:48.657Z,25.23
2018-11-27T20:49:59.486Z,23.37
2018-11-27T20:54:13.170Z,23.47
2018-11-27T20:58:28.617Z,21.33
2018-11-27T21:02:42.036Z,21.53
2018-11-27T21:06:54.473Z,22.37
2018-11-27T21:11:09.036Z,23.77
2018-11-27T21:15:21.239Z,22.42
2018-11-27T21:19:33.547Z,23.33
2018-11-27T21:23:51.282Z,22.20
2018-11-27T21:28:04.170Z,21.97
2018-11-27T21:32:17.745Z,21.37
2018-11-27T21:36:30.369Z,20.43
2018-11-27T21:40:40.373Z,19.97
2018-11-27T21:44:50.885Z,19.67
2018-11-27T21:49:02.220Z,20.27
2018-11-27T21:53:13.020Z,18.27
2018-11-27T21:57:23.715Z,20.17
2018-11-27T22:01:36.385Z,17.17
2018-11-27T22:05:50.312Z,17.60
2018-11-27T22:10:02.639Z,16.73
2018-11-27T22:14:14.341Z,15.80
2018-11-27T22:18:24.933Z,15.90
2018-11-27T22:22:39.365Z,15.43
2018-11-27T22:26:47.755Z,14.77
2018-11-27T22:31:01.300Z,14.53
2018-11-27T22:35:13.565Z,15.43
2018-11-27T22:39:25.993Z,15.40
2018-11-27T22:43:35.312Z,16.23
2018-11-27T22:47:45.104Z,14.37
2018-11-27T22:51:56.998Z,15.70
2018-11-27T22:56:10.452Z,15.47
2018-11-27T23:00:44.168Z,15.50
2018-11-27T23:04:57.265Z,15.03
2018-11-27T23:09:07.569Z,15.83
2018-11-27T23:13:16.073Z,15.13
2018-11-27T23:17:31.145Z,16.20
2018-11-27T23:21:42.879Z,15.00
2018-11-27T23:25:53.060Z,17.10
2018-11-27T23:30:04.680Z,14.80
2018-11-27T23:34:16.587Z,15.17
2018-11-27T23:38:31.733Z,14.93
2018-11-27T23:42:41.330Z,14.93
2018-11-27T23:46:52.494Z,14.97
2018-11-27T23:51:03.269Z,15.67
2018-11-27T23:55:15.250Z,16.00
2018-11-27T23:59:26.938Z,15.20
